Time;durP1;ratioP1;P1;durP2;ratioP2;P2;SDS_P1;SDS_P2;PMS_P1;PMS_P2;Temp;Humidity;BMP_temperature;BMP_pressure;BME280_temperature;BME280_humidity;BME280_pressure;Samples;Min_cycle;Max_cycle;Signal;HPM_P1;HPM_P2
2022/12/21 00:01:33;;;;;;;1.95;1.85;;;1.50;99.90;;;;;;5074723;28;20059;-75
2022/12/21 00:04:01;;;;;;;4.65;4.45;;;1.40;99.90;;;;;;5075463;28;20024;-75
2022/12/21 00:06:30;;;;;;;0.20;0.20;;;1.40;99.90;;;;;;5062419;28;20059;-75
2022/12/21 00:08:59;;;;;;;4.50;4.35;;;1.40;99.90;;;;;;5065607;28;20072;-74
2022/12/21 00:11:27;;;;;;;35.10;33.25;;;1.30;99.90;;;;;;5071721;28;20037;-74
2022/12/21 00:13:56;;;;;;;2.72;2.63;;;1.20;99.90;;;;;;5065646;28;20101;-76
2022/12/21 00:16:24;;;;;;;21.75;9.80;;;1.20;99.90;;;;;;5064559;28;20035;-75
2022/12/21 00:18:51;;;;;;;7.32;6.97;;;1.20;99.90;;;;;;5056447;28;20037;-75
2022/12/21 00:21:23;;;;;;;27.30;24.58;;;1.30;99.90;;;;;;5057437;28;20742;-75
2022/12/21 00:23:51;;;;;;;0.10;0.10;;;1.20;99.90;;;;;;5070672;28;20220;-75
2022/12/21 00:26:19;;;;;;;1.55;1.55;;;1.10;99.90;;;;;;5100799;28;20030;-75
2022/12/21 00:28:45;;;;;;;3.40;3.30;;;1.20;99.90;;;;;;5101650;28;20288;-75
2022/12/21 00:31:13;;;;;;;1.20;1.20;;;1.20;99.90;;;;;;5102607;28;20031;-75
2022/12/21 00:33:40;;;;;;;29.35;28.05;;;1.00;99.90;;;;;;5101554;28;20038;-75
2022/12/21 00:36:08;;;;;;;27.55;10.27;;;1.00;99.90;;;;;;5105249;28;20160;-76
2022/12/21 00:38:34;;;;;;;1.15;1.15;;;1.00;99.90;;;;;;5104117;28;20050;-74
2022/12/21 00:41:05;;;;;;;0.30;0.30;;;1.10;99.90;;;;;;5103788;28;20035;-75
2022/12/21 00:43:33;;;;;;;0.10;0.10;;;1.10;99.90;;;;;;5109374;28;20026;-75
2022/12/21 00:45:59;;;;;;;0.10;0.10;;;1.10;99.90;;;;;;5091993;28;20039;-75
2022/12/21 00:48:28;;;;;;;1.48;1.48;;;1.00;99.90;;;;;;5102271;28;20443;-75
2022/12/21 00:51:06;;;;;;;1.50;1.50;;;0.90;99.90;;;;;;5105050;28;20069;-75
2022/12/21 00:53:33;;;;;;;69.15;12.90;;;0.90;99.90;;;;;;5100915;28;20422;-75
2022/12/21 00:56:00;;;;;;;0.47;0.47;;;1.00;99.90;;;;;;5100435;28;20039;-75
2022/12/21 00:58:29;;;;;;;0.98;0.75;;;1.00;99.90;;;;;;5101190;28;20040;-75
2022/12/21 01:00:56;;;;;;;1.42;1.40;;;0.90;99.90;;;;;;5105829;28;20522;-75
2022/12/21 01:03:24;;;;;;;0.20;0.20;;;0.90;99.90;;;;;;5106254;28;20016;-75
2022/12/21 01:05:51;;;;;;;0.40;0.40;;;0.70;99.90;;;;;;5108111;28;20072;-76
2022/12/21 01:08:20;;;;;;;11.23;10.55;;;0.70;99.90;;;;;;5108653;28;20445;-75
2022/12/21 01:10:49;;;;;;;1.97;1.90;;;0.70;99.90;;;;;;5105872;28;20058;-75
2022/12/21 01:13:16;;;;;;;0.37;0.37;;;0.60;99.90;;;;;;5086340;28;20028;-75
2022/12/21 01:15:43;;;;;;;0.97;0.97;;;0.40;99.90;;;;;;5105043;28;20034;-75
2022/12/21 01:18:10;;;;;;;5.17;5.03;;;0.40;99.90;;;;;;5103719;28;20028;-75
2022/12/21 01:20:50;;;;;;;40.27;35.87;;;0.10;99.90;;;;;;5104765;28;20108;-75
2022/12/21 01:23:16;;;;;;;0.43;0.43;;;0.00;99.90;;;;;;5085705;28;20059;-75
2022/12/21 01:25:44;;;;;;;30.70;28.67;;;-2.40;99.90;;;;;;5103979;28;20016;-75
2022/12/21 01:28:11;;;;;;;55.90;11.10;;;0.10;99.90;;;;;;5105061;28;20022;-75
2022/12/21 01:30:40;;;;;;;0.47;0.47;;;0.00;99.90;;;;;;5108699;28;20096;-75
2022/12/21 01:33:16;;;;;;;8.50;8.10;;;-0.10;99.90;;;;;;5105200;28;20024;-75
2022/12/21 01:35:43;;;;;;;0.70;0.70;;;0.00;99.90;;;;;;5086953;28;20521;-75
2022/12/21 01:38:10;;;;;;;3.17;3.10;;;0.10;99.90;;;;;;5105577;28;20051;-74
2022/12/21 01:40:36;;;;;;;0.97;0.97;;;0.20;99.90;;;;;;5108407;28;20069;-75
2022/12/21 01:43:18;;;;;;;0.20;0.20;;;0.30;99.90;;;;;;5104989;28;20024;-75
2022/12/21 01:45:52;;;;;;;0.50;0.50;;;0.40;99.90;;;;;;5105795;28;20015;-75
2022/12/21 01:48:19;;;;;;;0.20;0.20;;;0.40;99.90;;;;;;5108751;28;20020;-75
2022/12/21 01:51:02;;;;;;;10.73;10.27;;;0.30;99.90;;;;;;5115324;28;20247;-75
2022/12/21 01:53:33;;;;;;;12.23;11.63;;;0.40;99.90;;;;;;5111328;28;20251;-75
2022/12/21 01:56:02;;;;;;;0.20;0.20;;;0.40;99.90;;;;;;5111146;28;20032;-76
2022/12/21 01:58:29;;;;;;;0.87;0.87;;;0.40;99.90;;;;;;5109093;28;20027;-74
2022/12/21 02:00:58;;;;;;;7.17;6.93;;;0.40;99.90;;;;;;5106282;28;20103;-75
2022/12/21 02:03:28;;;;;;;0.20;0.20;;;0.40;99.90;;;;;;5110067;28;20028;-75
2022/12/21 02:06:15;;;;;;;17.23;16.13;;;0.40;99.90;;;;;;5112590;28;20028;-75
2022/12/21 02:08:44;;;;;;;0.20;0.20;;;0.30;99.90;;;;;;5110612;28;20419;-75
2022/12/21 02:11:10;;;;;;;0.10;0.10;;;0.30;99.90;;;;;;5105276;28;20346;-75
2022/12/21 02:13:36;;;;;;;0.17;0.17;;;0.30;99.90;;;;;;5106070;28;20477;-75
2022/12/21 02:16:08;;;;;;;23.77;22.67;;;0.20;99.90;;;;;;5103752;28;20080;-75
2022/12/21 02:18:46;;;;;;;5.90;5.70;;;-1.40;99.90;;;;;;5106405;28;20036;-75
2022/12/21 02:21:28;;;;;;;26.93;24.93;;;0.20;99.90;;;;;;5103331;28;20027;-74
2022/12/21 02:24:13;;;;;;;0.20;0.20;;;0.20;99.90;;;;;;5104326;28;20028;-75
2022/12/21 02:26:56;;;;;;;;;;;0.20;99.90;;;;;;5106679;28;20065;-76
2022/12/21 02:29:45;;;;;;;2.53;2.43;;;0.20;99.90;;;;;;5106174;28;19994;-78
2022/12/21 02:32:34;;;;;;;2.67;2.53;;;0.30;99.90;;;;;;5083559;28;20141;-75
2022/12/21 02:35:02;;;;;;;0.87;0.87;;;0.30;99.90;;;;;;5005850;28;20029;-75
2022/12/21 02:37:40;;;;;;;2.80;2.70;;;0.30;99.90;;;;;;5020038;28;20519;-75
2022/12/21 02:40:16;;;;;;;0.10;0.10;;;0.20;99.90;;;;;;5021931;28;20053;-75
2022/12/21 02:46:01;;;;;;;0.10;0.10;;;0.40;99.90;;;;;;4959615;28;20460;-77
2022/12/21 02:48:47;;;;;;;6.43;6.17;;;0.40;99.90;;;;;;4943205;28;20445;-75
2022/12/21 02:51:20;;;;;;;0.20;0.20;;;0.30;99.90;;;;;;4961785;28;20051;-75
2022/12/21 02:53:46;;;;;;;0.20;0.20;;;0.40;99.90;;;;;;4960612;28;20133;-75
2022/12/21 02:56:16;;;;;;;3.50;3.40;;;0.40;99.90;;;;;;4948184;28;20073;-76
2022/12/21 02:58:42;;;;;;;2.30;2.20;;;0.40;99.90;;;;;;4966539;28;20550;-75
2022/12/21 03:01:16;;;;;;;0.10;0.10;;;0.50;99.90;;;;;;4963115;28;20517;-77
2022/12/21 03:04:07;;;;;;;2.47;2.40;;;0.60;99.90;;;;;;4966400;28;20072;-76
2022/12/21 03:07:12;;;;;;;0.73;0.73;;;0.60;99.90;;;;;;4980112;28;20019;-78
2022/12/21 03:09:52;;;;;;;;;;;0.60;99.90;;;;;;4945313;29;20132;-76
2022/12/21 03:12:29;;;;;;;0.43;0.43;;;0.60;99.90;;;;;;4965227;28;20064;-75
2022/12/21 03:15:14;;;;;;;0.50;0.50;;;0.60;99.90;;;;;;4959694;28;20057;-76
2022/12/21 03:17:43;;;;;;;0.25;0.25;;;0.70;99.90;;;;;;4967631;28;20058;-75
2022/12/21 03:20:18;;;;;;;2.25;2.17;;;0.60;99.90;;;;;;4969326;28;20042;-75
2022/12/21 03:23:11;;;;;;;0.20;0.20;;;0.70;99.90;;;;;;4991962;28;20038;-77
2022/12/21 03:25:48;;;;;;;0.20;0.20;;;0.60;99.90;;;;;;5027896;28;20339;-75
2022/12/21 03:28:20;;;;;;;0.20;0.20;;;0.70;99.90;;;;;;5026282;28;20069;-75
2022/12/21 03:30:52;;;;;;;0.37;0.37;;;0.80;99.90;;;;;;5027863;28;20103;-76
2022/12/21 03:33:23;;;;;;;6.33;4.53;;;0.80;99.90;;;;;;5027586;28;20071;-76
2022/12/21 03:36:05;;;;;;;0.22;0.22;;;0.90;99.90;;;;;;5023742;28;20029;-75
2022/12/21 03:38:40;;;;;;;0.10;0.10;;;0.90;99.90;;;;;;5020058;28;20022;-75
2022/12/21 03:41:11;;;;;;;0.30;0.30;;;0.90;99.90;;;;;;5020850;28;20337;-75
2022/12/21 03:43:37;;;;;;;0.20;0.20;;;0.90;99.90;;;;;;5020032;28;20219;-75
2022/12/21 03:46:10;;;;;;;0.10;0.10;;;0.70;99.90;;;;;;5025700;28;20097;-75
2022/12/21 03:48:55;;;;;;;0.70;0.70;;;0.70;99.90;;;;;;5080691;28;20486;-75
2022/12/21 03:51:43;;;;;;;0.15;0.15;;;0.70;99.90;;;;;;5084425;28;20059;-75
2022/12/21 03:54:23;;;;;;;0.10;0.10;;;0.70;99.90;;;;;;5080569;28;20027;-75
2022/12/21 03:56:49;;;;;;;0.30;0.30;;;0.60;99.90;;;;;;5084859;28;20362;-75
2022/12/21 03:59:17;;;;;;;10.02;9.13;;;0.60;99.90;;;;;;5101475;28;20059;-75
2022/12/21 04:01:55;;;;;;;1.90;1.80;;;0.60;99.90;;;;;;5101553;28;20019;-78
2022/12/21 04:04:46;;;;;;;0.15;0.15;;;0.40;99.90;;;;;;5087585;28;20027;-75
2022/12/21 04:07:15;;;;;;;40.85;14.57;;;0.40;99.90;;;;;;5083598;28;20304;-75
2022/12/21 04:09:41;;;;;;;1.03;1.03;;;0.40;99.90;;;;;;5101899;28;20032;-75
2022/12/21 04:14:51;;;;;;;;;;;0.30;99.90;;;;;;5103913;28;20092;-76
2022/12/21 04:17:17;;;;;;;0.13;0.13;;;0.30;99.90;;;;;;5098799;28;19904;-75
2022/12/21 04:19:57;;;;;;;0.20;0.20;;;0.30;99.90;;;;;;5085885;28;20016;-76
2022/12/21 04:28:08;;;;;;;0.10;0.10;;;0.40;99.90;;;;;;5122879;28;20039;-75
2022/12/21 04:30:39;;;;;;;8.27;7.70;;;0.40;99.90;;;;;;5127307;28;20040;-76
2022/12/21 04:33:12;;;;;;;0.10;0.10;;;0.40;99.90;;;;;;5123770;28;20057;-76
2022/12/21 04:38:31;;;;;;;0.30;0.30;;;0.40;99.90;;;;;;5021728;28;20033;-75
2022/12/21 04:40:57;;;;;;;0.20;0.20;;;0.70;99.90;;;;;;5021693;28;20030;-75
2022/12/21 04:43:24;;;;;;;5.10;4.90;;;0.60;99.90;;;;;;5008551;28;20140;-75
2022/12/21 04:45:58;;;;;;;0.20;0.20;;;0.50;99.90;;;;;;5022647;28;20078;-75
2022/12/21 04:48:23;;;;;;;;;;;0.60;99.90;;;;;;5020487;28;20025;-76
2022/12/21 04:50:49;;;;;;;0.20;0.20;;;;;;;;;;5023005;28;19924;-75
2022/12/21 04:53:15;;;;;;;18.03;17.40;;;0.60;99.90;;;;;;5005598;28;20026;-75
2022/12/21 04:55:45;;;;;;;0.33;0.33;;;0.50;99.90;;;;;;5021739;28;20097;-75
2022/12/21 04:58:11;;;;;;;0.20;0.20;;;0.80;99.90;;;;;;5021593;28;20772;-75
2022/12/21 05:00:37;;;;;;;0.30;0.30;;;;;;;;;;5005038;28;20053;-75
2022/12/21 05:03:04;;;;;;;1.37;1.37;;;;;;;;;;5022369;28;20037;-76
2022/12/21 05:05:30;;;;;;;20.47;18.97;;;;;;;;;;5021675;28;20084;-75
2022/12/21 05:07:56;;;;;;;10.30;9.83;;;0.00;99.90;;;;;;5025742;28;20089;-75
2022/12/21 05:10:22;;;;;;;0.43;0.43;;;-0.10;99.90;;;;;;5022940;28;20105;-75
2022/12/21 05:12:49;;;;;;;0.20;0.20;;;-0.10;99.90;;;;;;5022684;28;20033;-75
2022/12/21 05:15:16;;;;;;;3.07;2.87;;;-0.20;99.90;;;;;;5037089;28;20067;-75
2022/12/21 05:17:43;;;;;;;57.73;53.13;;;-0.30;99.90;;;;;;5088614;28;20035;-75
2022/12/21 05:20:09;;;;;;;0.33;0.33;;;-0.30;99.90;;;;;;5088402;28;20500;-76
2022/12/21 05:22:34;;;;;;;10.00;8.03;;;-0.20;99.90;;;;;;5105846;28;20027;-75
2022/12/21 05:25:00;;;;;;;0.30;0.30;;;0.00;99.90;;;;;;5105083;28;20022;-75
2022/12/21 05:27:26;;;;;;;0.40;0.40;;;-0.20;99.90;;;;;;5103099;28;20266;-76
2022/12/21 05:29:52;;;;;;;6.83;4.93;;;-0.10;99.90;;;;;;5104582;28;20035;-75
2022/12/21 05:32:17;;;;;;;0.10;0.10;;;-0.10;99.90;;;;;;5106743;28;20027;-75
2022/12/21 05:34:44;;;;;;;0.40;0.40;;;-1.10;99.90;;;;;;5087196;28;20059;-77
2022/12/21 05:37:10;;;;;;;27.17;25.27;;;-2.00;99.90;;;;;;5106006;28;20027;-74
2022/12/21 05:39:36;;;;;;;1.37;1.37;;;-0.20;99.90;;;;;;5106771;28;20361;-76
2022/12/21 05:42:02;;;;;;;0.30;0.30;;;-0.20;99.90;;;;;;5104177;28;20103;-75
2022/12/21 05:44:28;;;;;;;0.67;0.67;;;-0.10;99.90;;;;;;5103617;28;20269;-75
2022/12/21 05:46:54;;;;;;;0.20;0.20;;;-0.10;99.90;;;;;;5103713;28;20469;-75
2022/12/21 05:49:21;;;;;;;0.17;0.17;;;-0.10;99.90;;;;;;5105919;28;20020;-75
2022/12/21 05:51:48;;;;;;;12.10;11.53;;;0.00;99.90;;;;;;5105210;28;20024;-75
2022/12/21 05:54:15;;;;;;;0.10;0.10;;;0.00;99.90;;;;;;5104122;28;20302;-75
2022/12/21 05:56:41;;;;;;;0.33;0.33;;;0.10;99.90;;;;;;5104280;28;20043;-76
2022/12/21 05:59:08;;;;;;;0.10;0.10;;;0.10;99.90;;;;;;5105967;28;20032;-76
2022/12/21 06:01:35;;;;;;;13.17;12.67;;;0.20;99.90;;;;;;5088164;28;20066;-75
2022/12/21 06:04:00;;;;;;;0.20;0.20;;;0.20;99.90;;;;;;5102942;28;20020;-75
2022/12/21 06:06:26;;;;;;;0.10;0.10;;;0.30;99.90;;;;;;5103443;28;20438;-75
2022/12/21 06:08:52;;;;;;;1.80;1.73;;;0.30;99.90;;;;;;5107017;28;20024;-75
2022/12/21 06:11:23;;;;;;;0.10;0.10;;;0.30;99.90;;;;;;5103837;28;20044;-75
2022/12/21 06:13:53;;;;;;;1.23;1.23;;;0.40;99.90;;;;;;5085195;28;20365;-76
2022/12/21 06:16:21;;;;;;;0.22;0.22;;;0.40;99.90;;;;;;5104269;28;20406;-76
2022/12/21 06:18:47;;;;;;;0.10;0.10;;;0.00;99.90;;;;;;5087967;28;20040;-75
2022/12/21 06:21:15;;;;;;;0.10;0.10;;;0.50;99.90;;;;;;5108749;28;20085;-76
2022/12/21 06:23:42;;;;;;;0.10;0.10;;;0.50;99.90;;;;;;5111116;28;20027;-76
2022/12/21 06:26:11;;;;;;;1.50;1.50;;;0.60;99.90;;;;;;5110201;28;20212;-76
2022/12/21 06:28:37;;;;;;;0.10;0.10;;;0.60;99.90;;;;;;5105986;28;20105;-74
2022/12/21 06:31:12;;;;;;;0.10;0.10;;;0.60;99.90;;;;;;5106577;28;20039;-78
2022/12/21 06:33:39;;;;;;;0.10;0.10;;;0.60;99.90;;;;;;5103975;28;20106;-75
2022/12/21 06:36:06;;;;;;;0.57;0.57;;;0.60;99.90;;;;;;5106591;28;20098;-76
2022/12/21 06:38:32;;;;;;;0.20;0.20;;;0.60;99.90;;;;;;5085399;28;20625;-75
2022/12/21 06:41:01;;;;;;;7.13;6.82;;;0.60;99.90;;;;;;5103409;28;20216;-75
2022/12/21 06:43:29;;;;;;;5.70;5.50;;;0.70;99.90;;;;;;5102403;28;20124;-75
2022/12/21 06:45:57;;;;;;;0.10;0.10;;;0.70;99.90;;;;;;5105823;28;20020;-76
2022/12/21 06:48:24;;;;;;;4.60;4.38;;;0.70;99.90;;;;;;5102700;28;20219;-75
2022/12/21 06:50:58;;;;;;;17.38;16.67;;;0.40;99.90;;;;;;5105747;28;20787;-74
2022/12/21 06:53:26;;;;;;;;;;;0.50;99.90;;;;;;5107768;28;20023;-76
2022/12/21 06:55:59;;;;;;;0.10;0.10;;;0.50;99.90;;;;;;5103508;27;19979;-75
2022/12/21 06:58:25;;;;;;;0.10;0.10;;;0.60;99.90;;;;;;5102219;28;20469;-75
2022/12/21 07:00:51;;;;;;;0.10;0.10;;;0.50;99.90;;;;;;5105777;28;20034;-75
2022/12/21 07:03:19;;;;;;;0.38;0.38;;;0.60;99.90;;;;;;5103301;28;20229;-75
2022/12/21 07:05:45;;;;;;;0.10;0.10;;;0.70;99.90;;;;;;5102717;28;20019;-75
2022/12/21 07:08:10;;;;;;;3.30;2.45;;;0.80;99.90;;;;;;5103207;28;20088;-77
2022/12/21 07:10:40;;;;;;;0.10;0.10;;;0.80;99.90;;;;;;5102646;28;20030;-76
2022/12/21 07:13:05;;;;;;;1.95;1.85;;;0.80;99.90;;;;;;5105843;28;20228;-75
2022/12/21 07:15:32;;;;;;;0.10;0.10;;;0.90;99.90;;;;;;5107449;28;20370;-75
2022/12/21 07:17:58;;;;;;;4.57;4.30;;;0.90;99.90;;;;;;5106388;28;20028;-74
2022/12/21 07:20:24;;;;;;;18.90;18.20;;;0.90;99.90;;;;;;5106800;28;20026;-75
2022/12/21 07:22:50;;;;;;;0.05;0.05;;;0.90;99.90;;;;;;5103644;28;20028;-75
2022/12/21 07:25:16;;;;;;;0.10;0.10;;;0.90;99.90;;;;;;5105727;28;20077;-75
2022/12/21 07:27:41;;;;;;;6.25;6.03;;;1.00;99.90;;;;;;5106295;28;20031;-75
2022/12/21 07:30:17;;;;;;;1.13;1.13;;;1.00;99.90;;;;;;5108674;28;20035;-76
2022/12/21 07:32:43;;;;;;;1.23;1.23;;;1.00;99.90;;;;;;5109463;28;20047;-76
2022/12/21 07:35:09;;;;;;;0.93;0.93;;;1.00;99.90;;;;;;5083546;28;20421;-75
2022/12/21 07:37:35;;;;;;;0.10;0.10;;;1.10;99.90;;;;;;5101984;28;20356;-76
2022/12/21 07:40:04;;;;;;;0.43;0.43;;;1.20;99.90;;;;;;5104275;28;20338;-75
2022/12/21 07:42:31;;;;;;;0.20;0.20;;;1.20;99.90;;;;;;5101847;28;20272;-75
2022/12/21 07:44:57;;;;;;;3.13;3.03;;;1.20;99.90;;;;;;5106155;28;20028;-75
2022/12/21 07:47:23;;;;;;;0.98;0.98;;;1.00;99.90;;;;;;5100880;28;20665;-75
2022/12/21 07:49:48;;;;;;;2.50;2.40;;;1.20;99.90;;;;;;5083837;28;20023;-75
2022/12/21 07:52:15;;;;;;;0.10;0.10;;;1.20;99.90;;;;;;5103583;28;20397;-75
2022/12/21 07:54:46;;;;;;;2.15;2.05;;;1.10;99.90;;;;;;5102558;28;20015;-75
2022/12/21 07:57:12;;;;;;;7.07;6.72;;;1.10;99.90;;;;;;5099620;28;20437;-76
2022/12/21 07:59:38;;;;;;;0.10;0.10;;;1.10;99.90;;;;;;5102865;28;20028;-76
2022/12/21 08:02:05;;;;;;;0.17;0.17;;;1.10;99.90;;;;;;5101910;28;20058;-75
2022/12/21 08:04:31;;;;;;;1.15;1.15;;;1.00;99.90;;;;;;5101478;28;20015;-75
2022/12/21 08:06:56;;;;;;;18.13;17.40;;;0.80;99.90;;;;;;5102354;28;20095;-75
2022/12/21 08:09:22;;;;;;;0.43;0.43;;;1.20;99.90;;;;;;5100631;28;20051;-75
2022/12/21 08:11:48;;;;;;;0.10;0.10;;;1.30;99.90;;;;;;5104423;28;20055;-75
2022/12/21 08:14:14;;;;;;;44.20;37.13;;;1.40;99.90;;;;;;5102673;28;20055;-75
2022/12/21 08:16:40;;;;;;;0.82;0.82;;;1.50;99.90;;;;;;5100977;28;20047;-75
2022/12/21 08:19:05;;;;;;;0.98;0.98;;;1.30;99.90;;;;;;5101985;28;20054;-75
2022/12/21 08:21:31;;;;;;;0.10;0.10;;;1.30;99.90;;;;;;5095101;28;20019;-75
2022/12/21 08:23:57;;;;;;;0.20;0.20;;;1.40;99.90;;;;;;5081741;28;20085;-75
2022/12/21 08:26:23;;;;;;;9.00;8.55;;;1.50;99.90;;;;;;5081611;28;20024;-75
2022/12/21 08:28:49;;;;;;;0.40;0.40;;;1.50;99.90;;;;;;5084522;28;20735;-75
2022/12/21 08:31:18;;;;;;;0.20;0.20;;;1.60;99.90;;;;;;5081654;28;20067;-75
2022/12/21 08:33:45;;;;;;;1.55;1.45;;;1.70;99.90;;;;;;5083740;28;20016;-74
2022/12/21 08:36:16;;;;;;;1.30;1.30;;;1.80;99.90;;;;;;5085755;28;20024;-75
2022/12/21 08:38:42;;;;;;;0.10;0.10;;;1.70;99.90;;;;;;5068644;28;20098;-75
2022/12/21 08:41:08;;;;;;;1.48;1.48;;;1.80;99.90;;;;;;5084346;28;20631;-74
2022/12/21 08:43:37;;;;;;;0.73;0.70;;;1.90;99.90;;;;;;5090100;28;20086;-75
2022/12/21 08:46:05;;;;;;;13.32;12.52;;;1.90;99.90;;;;;;5068693;28;20039;-75
2022/12/21 08:48:31;;;;;;;0.20;0.20;;;1.90;99.90;;;;;;5090323;28;20028;-75
2022/12/21 08:50:57;;;;;;;0.17;0.17;;;2.00;99.90;;;;;;5091386;28;20051;-75
2022/12/21 08:53:24;;;;;;;0.20;0.20;;;2.10;99.90;;;;;;5090023;28;20214;-74
2022/12/21 08:55:51;;;;;;;0.20;0.20;;;2.00;99.90;;;;;;5088930;28;20174;-75
2022/12/21 08:58:19;;;;;;;3.10;2.85;;;2.20;99.90;;;;;;5065292;28;20024;-75
2022/12/21 09:00:45;;;;;;;0.95;0.95;;;2.40;99.90;;;;;;5086140;28;20051;-75
2022/12/21 09:03:12;;;;;;;0.10;0.10;;;2.50;99.90;;;;;;5088729;28;20519;-75
2022/12/21 09:05:38;;;;;;;1.65;1.65;;;2.70;99.90;;;;;;5093539;28;20028;-75
2022/12/21 09:08:05;;;;;;;0.03;0.03;;;2.80;99.90;;;;;;5095517;28;20039;-75
2022/12/21 09:10:34;;;;;;;3.63;3.50;;;2.70;99.90;;;;;;5088348;28;20051;-75
2022/12/21 09:13:00;;;;;;;1.85;1.85;;;2.70;99.90;;;;;;5087752;28;20028;-75
2022/12/21 09:15:26;;;;;;;0.10;0.10;;;2.50;99.90;;;;;;5095880;28;20036;-75
2022/12/21 09:17:52;;;;;;;0.00;0.00;;;2.40;99.90;;;;;;5084919;28;20138;-76
2022/12/21 09:20:17;;;;;;;0.10;0.10;;;2.20;99.90;;;;;;5084254;28;20040;-75
2022/12/21 09:22:46;;;;;;;38.25;35.72;;;2.20;99.90;;;;;;5092169;28;20032;-75
2022/12/21 09:25:13;;;;;;;0.10;0.10;;;2.10;99.90;;;;;;5084641;28;20024;-75
2022/12/21 09:27:39;;;;;;;0.00;0.00;;;2.00;99.90;;;;;;5087395;28;20020;-77
2022/12/21 09:30:06;;;;;;;0.10;0.10;;;2.10;99.90;;;;;;5088793;28;20036;-75
2022/12/21 09:32:33;;;;;;;0.20;0.20;;;2.10;99.90;;;;;;5071460;28;20043;-77
2022/12/21 09:35:00;;;;;;;1.00;1.00;;;2.20;99.90;;;;;;5090159;28;20095;-79
2022/12/21 09:37:27;;;;;;;0.55;0.55;;;2.20;99.90;;;;;;5086589;28;20103;-75
2022/12/21 09:39:54;;;;;;;13.07;5.55;;;2.20;99.90;;;;;;5085849;28;20043;-75
2022/12/21 09:42:26;;;;;;;1.23;1.23;;;2.10;99.90;;;;;;5090727;28;20032;-76
2022/12/21 09:45:14;;;;;;;6.25;5.93;;;2.20;99.90;;;;;;5090609;28;20032;-75
2022/12/21 09:47:45;;;;;;;23.33;16.27;;;2.10;99.90;;;;;;5086081;28;20521;-81
2022/12/21 09:50:19;;;;;;;0.10;0.10;;;2.10;99.90;;;;;;5087594;28;20028;-75
2022/12/21 09:52:46;;;;;;;;;;;2.10;99.90;;;;;;5088027;28;20024;-75
2022/12/21 09:55:19;;;;;;;0.10;0.10;;;2.20;99.90;;;;;;5084717;28;20057;-75
2022/12/21 09:57:48;;;;;;;1.67;1.58;;;2.20;99.90;;;;;;5084745;28;20020;-75
2022/12/21 10:00:23;;;;;;;3.13;3.03;;;2.30;99.90;;;;;;5086421;28;20023;-75
2022/12/21 10:03:26;;;;;;;23.63;21.33;;;2.50;99.90;;;;;;5088315;28;20103;-75
2022/12/21 10:06:01;;;;;;;5.97;5.75;;;2.60;99.90;;;;;;5087235;28;20045;-75
2022/12/21 10:08:27;;;;;;;35.15;33.30;;;2.70;99.90;;;;;;5087376;28;20654;-75
2022/12/21 10:11:04;;;;;;;16.20;15.02;;;2.60;99.90;;;;;;5068605;28;20047;-74
2022/12/21 10:13:29;;;;;;;4.78;4.50;;;2.80;99.90;;;;;;5092540;28;20016;-75
2022/12/21 10:15:58;;;;;;;26.50;24.33;;;3.00;99.90;;;;;;5090894;28;20662;-76
2022/12/21 10:18:23;;;;;;;0.13;0.13;;;2.90;99.90;;;;;;5073264;28;20036;-75
2022/12/21 10:21:23;;;;;;;0.75;0.75;;;3.00;99.90;;;;;;5088941;28;20020;-75
2022/12/21 10:23:52;;;;;;;0.40;0.40;;;3.00;99.90;;;;;;5001836;28;20220;-75
2022/12/21 10:26:22;;;;;;;0.13;0.13;;;3.10;99.90;;;;;;4987490;28;20132;-75
2022/12/21 10:29:02;;;;;;;26.83;23.90;;;3.10;99.90;;;;;;5004112;28;20464;-75
2022/12/21 10:31:35;;;;;;;10.82;10.35;;;3.30;99.90;;;;;;5002299;28;20116;-75
2022/12/21 10:34:05;;;;;;;0.00;0.00;;;3.30;99.90;;;;;;5000031;28;20126;-75
2022/12/21 10:36:36;;;;;;;0.30;0.30;;;3.50;99.90;;;;;;5000680;28;20046;-75
2022/12/21 10:39:03;;;;;;;4.95;4.78;;;3.60;99.90;;;;;;5002433;28;20020;-75
2022/12/21 10:41:35;;;;;;;4.43;4.28;;;3.70;99.90;;;;;;5000625;28;20350;-75
2022/12/21 10:44:02;;;;;;;1.33;1.33;;;;;;;;;;5002883;28;20169;-75
2022/12/21 10:46:37;;;;;;;7.57;7.28;;;3.70;99.90;;;;;;5010965;28;20105;-75
2022/12/21 10:49:21;;;;;;;5.38;4.97;;;3.50;99.90;;;;;;5013378;28;20061;-75
2022/12/21 10:51:48;;;;;;;0.10;0.10;;;3.70;99.90;;;;;;5002416;28;20034;-75
2022/12/21 10:54:23;;;;;;;1.65;1.55;;;4.20;99.90;;;;;;5003563;28;20026;-75
2022/12/21 10:56:50;;;;;;;0.10;0.10;;;3.60;99.90;;;;;;4999763;28;20081;-75
2022/12/21 10:59:25;;;;;;;20.85;19.30;;;3.70;99.90;;;;;;5000526;28;20029;-75
2022/12/21 11:01:51;;;;;;;0.00;0.00;;;3.70;99.90;;;;;;5056544;28;20406;-75
2022/12/21 11:04:26;;;;;;;0.95;0.95;;;3.70;99.90;;;;;;5081247;28;20340;-75
2022/12/21 11:07:04;;;;;;;64.70;19.48;;;3.90;99.90;;;;;;5062444;28;20132;-75
2022/12/21 11:09:39;;;;;;;0.40;0.40;;;3.90;99.90;;;;;;5064384;28;20082;-75
2022/12/21 11:12:20;;;;;;;2.10;2.00;;;3.90;99.90;;;;;;5082174;28;20537;-75
2022/12/21 11:14:47;;;;;;;4.70;4.47;;;4.00;99.90;;;;;;5084805;28;20019;-75
2022/12/21 11:17:29;;;;;;;3.10;3.03;;;4.30;99.90;;;;;;5086637;28;20117;-75
2022/12/21 11:20:06;;;;;;;0.10;0.10;;;4.50;99.90;;;;;;5084688;28;20444;-75
2022/12/21 11:22:33;;;;;;;0.10;0.10;;;4.60;99.90;;;;;;5087019;28;20054;-75
2022/12/21 11:25:01;;;;;;;3.90;3.75;;;4.70;99.90;;;;;;5082316;28;20024;-75
2022/12/21 11:27:33;;;;;;;0.30;0.30;;;4.90;99.90;;;;;;5062637;28;20545;-75
2022/12/21 11:30:21;;;;;;;37.30;33.97;;;4.60;99.90;;;;;;5082555;28;20024;-75
2022/12/21 11:32:49;;;;;;;0.10;0.10;;;4.50;99.90;;;;;;5080558;28;20039;-75
2022/12/21 11:35:25;;;;;;;0.60;0.60;;;4.50;99.90;;;;;;5065599;28;20056;-75
2022/12/21 11:37:55;;;;;;;0.10;0.10;;;4.40;99.90;;;;;;5084286;28;20021;-75
2022/12/21 11:40:24;;;;;;;0.10;0.10;;;4.30;99.90;;;;;;5081547;28;20103;-75
2022/12/21 11:43:16;;;;;;;0.25;0.25;;;4.30;99.90;;;;;;5081888;28;20028;-75
2022/12/21 11:46:21;;;;;;;0.10;0.10;;;3.80;99.90;;;;;;5077256;28;20100;-75
2022/12/21 11:49:24;;;;;;;0.10;0.10;;;4.10;99.90;;;;;;5058695;28;20043;-75
2022/12/21 11:51:53;;;;;;;0.10;0.10;;;4.10;99.90;;;;;;5082683;28;20091;-75
2022/12/21 11:54:45;;;;;;;9.02;8.68;;;4.10;99.90;;;;;;5084334;28;20138;-75
2022/12/21 11:57:48;;;;;;;53.28;38.70;;;4.20;99.90;;;;;;5090814;28;20047;-75
2022/12/21 12:00:15;;;;;;;0.68;0.68;;;4.10;99.90;;;;;;5089754;28;20032;-75
2022/12/21 12:03:25;;;;;;;0.10;0.10;;;4.20;99.90;;;;;;5089632;28;20052;-75
2022/12/21 12:06:16;;;;;;;12.05;11.25;;;4.20;99.90;;;;;;5072206;28;20020;-75
2022/12/21 12:08:56;;;;;;;0.00;0.00;;;4.00;99.90;;;;;;5071323;28;20074;-75
2022/12/21 12:11:31;;;;;;;0.40;0.40;;;4.10;99.90;;;;;;5087646;28;20016;-75
2022/12/21 12:14:03;;;;;;;17.92;17.05;;;4.30;99.90;;;;;;5087052;28;20036;-75
2022/12/21 12:17:09;;;;;;;81.07;76.05;;;4.40;99.90;;;;;;5070858;28;20084;-75
2022/12/21 12:19:45;;;;;;;0.30;0.30;;;4.70;99.90;;;;;;5090844;28;20111;-75
2022/12/21 12:22:26;;;;;;;0.93;0.93;;;4.70;99.90;;;;;;5086607;28;20024;-75
2022/12/21 12:25:13;;;;;;;8.52;8.02;;;4.60;99.90;;;;;;5084598;28;20042;-74
2022/12/21 12:27:58;;;;;;;0.10;0.10;;;4.80;99.90;;;;;;5086833;28;20024;-74
2022/12/21 12:30:30;;;;;;;8.50;8.20;;;4.80;99.90;;;;;;5066627;28;20032;-75
2022/12/21 12:33:26;;;;;;;4.55;4.38;;;4.80;99.90;;;;;;5085205;28;20016;-75
2022/12/21 12:36:12;;;;;;;0.13;0.13;;;4.70;99.90;;;;;;5091296;28;20028;-75
2022/12/21 12:38:50;;;;;;;0.10;0.10;;;4.60;99.90;;;;;;5082805;28;20031;-76
2022/12/21 12:41:27;;;;;;;0.10;0.10;;;4.50;99.90;;;;;;5084427;28;20008;-75
2022/12/21 12:44:09;;;;;;;1.10;1.10;;;4.60;99.90;;;;;;5062577;28;20554;-75
2022/12/21 12:47:06;;;;;;;9.07;8.77;;;4.40;99.90;;;;;;5082757;28;20020;-74
2022/12/21 12:49:51;;;;;;;0.10;0.10;;;4.50;99.90;;;;;;5019382;28;20684;-75
2022/12/21 12:52:38;;;;;;;2.53;2.42;;;4.30;99.90;;;;;;5019092;28;20108;-75
2022/12/21 12:55:33;;;;;;;32.70;30.02;;;4.30;99.90;;;;;;5021855;28;20053;-75
2022/12/21 12:58:22;;;;;;;0.10;0.10;;;4.40;99.90;;;;;;5021560;28;20057;-75
2022/12/21 13:00:53;;;;;;;5.68;5.47;;;4.40;99.90;;;;;;5021876;28;20041;-75
2022/12/21 13:03:24;;;;;;;53.92;51.38;;;4.40;99.90;;;;;;5020530;28;20032;-75
2022/12/21 13:06:19;;;;;;;63.88;60.67;;;4.50;99.90;;;;;;5024428;28;20068;-74
2022/12/21 13:09:09;;;;;;;28.48;27.25;;;4.40;99.90;;;;;;5004292;28;20029;-75
2022/12/21 13:11:44;;;;;;;0.73;0.73;;;4.50;99.90;;;;;;5021172;28;20073;-74
2022/12/21 13:14:18;;;;;;;0.80;0.80;;;4.50;99.90;;;;;;5021731;28;20044;-74
2022/12/21 13:17:28;;;;;;;0.43;0.43;;;4.50;99.90;;;;;;5021172;28;20104;-75
2022/12/21 13:19:56;;;;;;;0.00;0.00;;;4.40;99.90;;;;;;5018533;28;20116;-75
2022/12/21 13:22:27;;;;;;;27.80;22.45;;;4.40;99.90;;;;;;5023753;28;20017;-75
2022/12/21 13:25:05;;;;;;;16.00;15.35;;;4.40;99.90;;;;;;5027058;28;20108;-75
2022/12/21 13:27:40;;;;;;;0.00;0.00;;;4.30;99.90;;;;;;5081151;28;20079;-75
2022/12/21 13:30:12;;;;;;;30.05;28.25;;;4.20;99.90;;;;;;5084441;28;20019;-75
2022/12/21 13:32:44;;;;;;;3.78;3.63;;;4.30;99.90;;;;;;5084339;28;20024;-75
2022/12/21 13:35:27;;;;;;;0.20;0.20;;;4.20;99.90;;;;;;5084048;28;20016;-75